createdAt,value
2023-01-17T00:00:09.786Z,58.28
2023-01-17T00:02:38.569Z,63.70
2023-01-17T00:05:24.821Z,58.20
2023-01-17T00:08:10.790Z,57.58
2023-01-17T00:10:43.046Z,55.50
2023-01-17T00:13:10.585Z,57.38
2023-01-17T00:15:39.956Z,53.55
2023-01-17T00:18:07.511Z,56.40
2023-01-17T00:20:53.514Z,57.63
2023-01-17T00:23:42.541Z,54.53
2023-01-17T00:26:18.731Z,59.65
2023-01-17T00:28:47.601Z,56.50
2023-01-17T00:31:16.621Z,55.30
2023-01-17T00:33:44.456Z,56.97
2023-01-17T00:36:12.285Z,59.13
2023-01-17T00:38:40.488Z,60.47
2023-01-17T00:41:13.482Z,60.97
2023-01-17T00:43:59.937Z,60.17
2023-01-17T00:46:46.158Z,64.63
2023-01-17T00:49:32.353Z,67.10
2023-01-17T00:52:19.288Z,66.90
2023-01-17T00:55:05.078Z,63.00
2023-01-17T00:57:50.925Z,64.07
2023-01-17T01:00:38.213Z,76.13
2023-01-17T01:03:30.884Z,59.40
2023-01-17T01:06:17.268Z,61.00
2023-01-17T01:09:03.159Z,77.97
2023-01-17T01:11:48.977Z,61.88
2023-01-17T01:14:35.282Z,61.58
2023-01-17T01:17:21.600Z,71.45
2023-01-17T01:20:10.296Z,61.38
2023-01-17T01:22:56.242Z,63.55
2023-01-17T01:25:42.653Z,59.20
2023-01-17T01:28:31.040Z,56.55
2023-01-17T01:31:20.960Z,59.72
2023-01-17T01:33:50.053Z,57.30
2023-01-17T01:36:17.556Z,58.72
2023-01-17T01:38:46.033Z,54.50
2023-01-17T01:41:13.706Z,57.53
2023-01-17T01:43:49.657Z,59.97
2023-01-17T01:46:32.824Z,58.08
2023-01-17T01:49:15.005Z,52.90
2023-01-17T01:51:47.447Z,50.30
2023-01-17T01:54:30.647Z,48.25
2023-01-17T01:57:02.972Z,47.90
2023-01-17T01:59:32.334Z,44.13
2023-01-17T02:01:59.967Z,39.50
2023-01-17T02:04:28.774Z,34.88
2023-01-17T02:07:04.089Z,47.75
2023-01-17T02:09:31.940Z,42.58
2023-01-17T02:11:59.952Z,38.05
2023-01-17T02:14:27.516Z,38.10
2023-01-17T02:17:25.799Z,33.38
2023-01-17T02:19:55.999Z,33.33
2023-01-17T02:23:07.797Z,35.65
